Time,TemperatureF,DewpointF,PressureIn,WindDirection,WindDirectionDegrees,WindSpeedMPH,WindSpeedGustMPH,Humidity,HourlyPrecipIn,Conditions,Clouds,dailyrainin,SoftwareType,DateUTC
2013-03-16 00:02:00,35.0,35.0,29.87,NW,314,9.0,12.0,99,0.00,,,0.00,,2013-03-16 05:02:00,
2013-03-16 00:12:00,35.0,35.0,29.87,NW,314,9.0,12.0,99,0.00,,,0.00,,2013-03-16 05:12:00,
2013-03-16 00:21:00,34.0,34.0,29.89,NW,314,10.0,14.0,99,0.00,,,0.00,,2013-03-16 05:21:00,
2013-03-16 00:32:00,34.0,34.0,29.89,NW,313,9.0,14.0,99,0.00,,,0.00,,2013-03-16 05:32:00,
2013-03-16 00:42:00,34.0,34.0,29.89,NW,313,9.0,14.0,99,0.00,,,0.00,,2013-03-16 05:42:00,
2013-03-16 00:53:00,33.0,33.0,29.91,NW,309,10.0,16.0,99,0.00,,,0.00,,2013-03-16 05:53:00,
2013-03-16 01:02:00,33.0,33.0,29.91,WNW,297,10.0,16.0,99,0.00,,,0.00,,2013-03-16 06:02:00,
2013-03-16 01:12:00,33.0,33.0,29.91,WNW,297,10.0,16.0,99,0.00,,,0.00,,2013-03-16 06:12:00,
2013-03-16 01:22:00,33.0,33.0,29.90,NW,309,13.0,17.0,99,0.00,,,0.00,,2013-03-16 06:22:00,
2013-03-16 01:32:00,32.0,32.0,29.90,NW,311,13.0,15.0,99,0.00,,,0.00,,2013-03-16 06:32:00,
2013-03-16 01:42:00,32.0,32.0,29.90,NW,311,13.0,15.0,99,0.00,,,0.00,,2013-03-16 06:42:00,
2013-03-16 01:52:00,33.0,33.0,29.91,NW,311,10.0,13.0,99,0.00,,,0.00,,2013-03-16 06:52:00,
2013-03-16 02:02:00,33.0,33.0,29.92,WNW,301,13.0,15.0,99,0.00,,,0.00,,2013-03-16 07:02:00,
2013-03-16 02:12:00,33.0,33.0,29.92,WNW,301,13.0,15.0,99,0.00,,,0.00,,2013-03-16 07:12:00,
2013-03-16 02:22:00,32.0,32.0,29.93,NW,310,12.0,17.0,99,0.00,,,0.00,,2013-03-16 07:22:00,
2013-03-16 02:32:00,31.0,31.0,29.94,NW,307,9.0,16.0,99,0.00,,,0.00,,2013-03-16 07:32:00,
2013-03-16 02:42:00,31.0,31.0,29.94,NW,307,9.0,16.0,99,0.00,,,0.00,,2013-03-16 07:42:00,
2013-03-16 02:52:00,30.0,30.0,29.95,WNW,299,13.0,17.0,99,0.00,,,0.00,,2013-03-16 07:52:00,
2013-03-16 03:02:00,31.0,31.0,29.96,WNW,303,8.0,10.0,99,0.00,,,0.00,,2013-03-16 08:02:00,
2013-03-16 03:12:00,31.0,31.0,29.96,WNW,303,8.0,10.0,99,0.00,,,0.00,,2013-03-16 08:12:00,
2013-03-16 03:23:00,30.0,30.0,29.97,NW,309,8.0,10.0,99,0.00,,,0.00,,2013-03-16 08:23:00,
2013-03-16 03:32:00,30.0,30.0,29.97,NW,317,8.0,12.0,99,0.00,,,0.00,,2013-03-16 08:32:00,
2013-03-16 03:42:00,30.0,30.0,29.97,NW,317,8.0,12.0,99,0.00,,,0.00,,2013-03-16 08:42:00,
2013-03-16 03:52:00,30.0,30.0,29.97,NW,313,9.0,10.0,99,0.00,,,0.00,,2013-03-16 08:52:00,
2013-03-16 04:01:00,29.0,29.0,29.97,NW,306,14.0,17.0,99,0.00,,,0.00,,2013-03-16 09:01:00,
2013-03-16 04:12:00,29.0,29.0,29.97,NW,306,14.0,17.0,99,0.00,,,0.00,,2013-03-16 09:12:00,
2013-03-16 04:22:00,29.0,29.0,29.98,NW,306,15.0,21.0,99,0.00,,,0.00,,2013-03-16 09:22:00,
2013-03-16 04:32:00,28.0,28.0,29.98,NW,311,15.0,18.0,99,0.00,,,0.00,,2013-03-16 09:32:00,
2013-03-16 04:42:00,28.0,28.0,29.98,NW,311,15.0,18.0,99,0.00,,,0.00,,2013-03-16 09:42:00,
2013-03-16 04:53:00,27.0,27.0,30.00,NW,305,13.0,20.0,99,0.00,,,0.00,,2013-03-16 09:53:00,
2013-03-16 05:03:00,27.0,27.0,30.01,WNW,299,13.0,18.0,99,0.00,,,0.00,,2013-03-16 10:03:00,
2013-03-16 05:12:00,27.0,27.0,30.01,WNW,299,13.0,18.0,99,0.00,,,0.00,,2013-03-16 10:12:00,
2013-03-16 05:22:00,27.0,27.0,30.01,NW,304,16.0,21.0,99,0.00,,,0.00,,2013-03-16 10:22:00,
2013-03-16 05:32:00,27.0,27.0,30.02,NW,316,13.0,18.0,99,0.00,,,0.00,,2013-03-16 10:32:00,
2013-03-16 05:42:00,27.0,27.0,30.02,NW,316,13.0,18.0,99,0.00,,,0.00,,2013-03-16 10:42:00,
2013-03-16 05:53:00,26.0,26.0,30.03,WNW,302,12.0,16.0,99,0.00,,,0.00,,2013-03-16 10:53:00,
2013-03-16 06:03:00,26.0,26.0,30.04,NW,306,15.0,20.0,99,0.00,,,0.00,,2013-03-16 11:03:00,
2013-03-16 06:12:00,26.0,26.0,30.04,NW,306,15.0,20.0,99,0.00,,,0.00,,2013-03-16 11:12:00,
2013-03-16 06:22:00,26.0,26.0,30.06,NW,317,10.0,16.0,99,0.00,,,0.00,,2013-03-16 11:22:00,
2013-03-16 06:32:00,26.0,26.0,30.06,NW,308,13.0,15.0,99,0.00,,,0.00,,2013-03-16 11:32:00,
2013-03-16 06:42:00,26.0,26.0,30.06,NW,308,13.0,15.0,99,0.00,,,0.00,,2013-03-16 11:42:00,
2013-03-16 06:52:00,26.0,26.0,30.07,NW,317,12.0,14.0,99,0.00,,,0.00,,2013-03-16 11:52:00,
2013-03-16 07:02:00,26.0,26.0,30.08,NW,312,13.0,16.0,99,0.00,,,0.00,,2013-03-16 12:02:00,
2013-03-16 07:12:00,26.0,26.0,30.08,NW,312,13.0,16.0,99,0.00,,,0.00,,2013-03-16 12:12:00,
2013-03-16 07:22:00,25.0,25.0,30.09,NW,314,9.0,14.0,99,0.00,,,0.00,,2013-03-16 12:22:00,
2013-03-16 07:32:00,25.0,25.0,30.10,NW,309,9.0,15.0,99,0.00,,,0.00,,2013-03-16 12:32:00,
2013-03-16 07:42:00,25.0,25.0,30.10,NW,309,9.0,15.0,99,0.00,,,0.00,,2013-03-16 12:42:00,
2013-03-16 07:52:00,25.0,25.0,30.09,NW,312,13.0,16.0,99,0.00,,,0.00,,2013-03-16 12:52:00,
2013-03-16 08:02:00,24.0,24.0,30.10,NW,315,13.0,16.0,99,0.00,,,0.00,,2013-03-16 13:02:00,
2013-03-16 08:12:00,24.0,24.0,30.10,NW,315,13.0,16.0,99,0.00,,,0.00,,2013-03-16 13:12:00,
2013-03-16 08:22:00,25.0,25.0,30.11,NW,318,9.0,12.0,99,0.00,,,0.00,,2013-03-16 13:22:00,
2013-03-16 08:32:00,25.0,25.0,30.11,NW,312,12.0,14.0,99,0.00,,,0.00,,2013-03-16 13:32:00,
2013-03-16 08:42:00,25.0,25.0,30.11,NW,312,12.0,14.0,99,0.00,,,0.00,,2013-03-16 13:42:00,
2013-03-16 08:53:00,24.0,24.0,30.11,NW,317,12.0,15.0,99,0.00,,,0.00,,2013-03-16 13:53:00,
2013-03-16 09:02:00,25.0,25.0,30.12,NW,323,12.0,15.0,99,0.00,,,0.00,,2013-03-16 14:02:00,
2013-03-16 09:12:00,25.0,25.0,30.12,NW,323,12.0,15.0,99,0.00,,,0.00,,2013-03-16 14:12:00,
2013-03-16 09:22:00,25.0,25.0,30.12,NW,321,10.0,14.0,99,0.00,,,0.00,,2013-03-16 14:22:00,
2013-03-16 09:32:00,25.0,25.0,30.13,NNW,333,10.0,15.0,98,0.00,,,0.00,,2013-03-16 14:32:00,
2013-03-16 09:42:00,25.0,25.0,30.13,NNW,333,10.0,15.0,98,0.00,,,0.00,,2013-03-16 14:42:00,
2013-03-16 09:52:00,24.0,24.0,30.13,NW,325,8.0,8.0,99,0.00,,,0.00,,2013-03-16 14:52:00,
2013-03-16 10:02:00,24.0,24.0,30.13,NW,325,8.0,9.0,99,0.00,,,0.00,,2013-03-16 15:02:00,
2013-03-16 10:12:00,24.0,24.0,30.13,NW,325,8.0,9.0,99,0.00,,,0.00,,2013-03-16 15:12:00,
2013-03-16 10:22:00,24.0,24.0,30.13,NNW,330,6.0,7.0,99,0.00,,,0.00,,2013-03-16 15:22:00,
2013-03-16 10:33:00,25.0,25.0,30.14,NW,324,7.0,8.0,98,0.00,,,0.00,,2013-03-16 15:33:00,
2013-03-16 10:43:00,25.0,25.0,30.14,NW,324,7.0,8.0,98,0.00,,,0.00,,2013-03-16 15:43:00,
2013-03-16 10:53:00,25.0,24.0,30.14,North,352,8.0,12.0,95,0.00,,,0.00,,2013-03-16 15:53:00,
2013-03-16 11:03:00,25.0,23.0,30.14,NW,326,9.0,13.0,93,0.00,,,0.00,,2013-03-16 16:03:00,
2013-03-16 11:12:00,25.0,23.0,30.14,NW,326,9.0,13.0,93,0.00,,,0.00,,2013-03-16 16:12:00,
2013-03-16 11:22:00,25.0,23.0,30.14,NW,320,10.0,13.0,91,0.00,,,0.00,,2013-03-16 16:22:00,
2013-03-16 11:33:00,25.0,23.0,30.14,NW,322,9.0,13.0,91,0.00,,,0.00,,2013-03-16 16:33:00,
2013-03-16 11:42:00,25.0,23.0,30.14,NW,322,9.0,13.0,91,0.00,,,0.00,,2013-03-16 16:42:00,
2013-03-16 11:53:00,26.0,23.0,30.15,NNW,344,7.0,13.0,90,0.00,,,0.00,,2013-03-16 16:53:00,
2013-03-16 12:03:00,26.0,23.0,30.15,NNW,335,8.0,12.0,89,0.00,,,0.00,,2013-03-16 17:03:00,
2013-03-16 12:12:00,26.0,23.0,30.15,NNW,335,8.0,12.0,89,0.00,,,0.00,,2013-03-16 17:12:00,
2013-03-16 12:22:00,26.0,24.0,30.16,NNW,331,7.0,13.0,92,0.00,,,0.00,,2013-03-16 17:22:00,
2013-03-16 12:32:00,26.0,23.0,30.16,NW,326,9.0,12.0,90,0.00,,,0.00,,2013-03-16 17:32:00,
2013-03-16 12:42:00,26.0,23.0,30.16,NW,326,9.0,12.0,90,0.00,,,0.00,,2013-03-16 17:42:00,
2013-03-16 12:53:00,26.0,23.0,30.16,NNW,341,9.0,13.0,88,0.00,,,0.00,,2013-03-16 17:53:00,
2013-03-16 13:02:00,26.0,23.0,30.15,NNW,345,8.0,12.0,87,0.00,,,0.00,,2013-03-16 18:02:00,
2013-03-16 13:13:00,26.0,23.0,30.15,NNW,345,8.0,12.0,87,0.00,,,0.00,,2013-03-16 18:13:00,
2013-03-16 13:22:00,27.0,24.0,30.14,NW,324,9.0,13.0,88,0.00,,,0.00,,2013-03-16 18:22:00,
2013-03-16 13:32:00,27.0,23.0,30.15,NNW,342,9.0,13.0,84,0.00,,,0.00,,2013-03-16 18:32:00,
2013-03-16 13:42:00,27.0,23.0,30.15,NNW,342,9.0,13.0,84,0.00,,,0.00,,2013-03-16 18:42:00,
2013-03-16 13:53:00,28.0,24.0,30.15,NW,316,9.0,15.0,86,0.00,,,0.00,,2013-03-16 18:53:00,
2013-03-16 14:02:00,28.0,24.0,30.14,NNW,347,8.0,12.0,86,0.00,,,0.00,,2013-03-16 19:02:00,
2013-03-16 14:12:00,28.0,24.0,30.14,NNW,347,8.0,12.0,86,0.00,,,0.00,,2013-03-16 19:12:00,
2013-03-16 14:22:00,29.0,25.0,30.15,North,351,5.0,8.0,84,0.00,,,0.00,,2013-03-16 19:22:00,
2013-03-16 14:32:00,29.0,24.0,30.14,North,349,7.0,9.0,82,0.00,,,0.00,,2013-03-16 19:32:00,
2013-03-16 14:42:00,29.0,24.0,30.14,North,349,7.0,9.0,82,0.00,,,0.00,,2013-03-16 19:42:00,
2013-03-16 14:53:00,29.0,25.0,30.13,NNW,346,8.0,10.0,83,0.00,,,0.00,,2013-03-16 19:53:00,
2013-03-16 15:02:00,29.0,25.0,30.13,North,0,8.0,10.0,83,0.00,,,0.00,,2013-03-16 20:02:00,
2013-03-16 15:12:00,29.0,25.0,30.13,North,0,8.0,10.0,83,0.00,,,0.00,,2013-03-16 20:12:00,
2013-03-16 15:22:00,29.0,25.0,30.11,North,6,8.0,12.0,84,0.00,,,0.00,,2013-03-16 20:22:00,
2013-03-16 15:32:00,30.0,26.0,30.11,NNW,346,7.0,12.0,84,0.00,,,0.00,,2013-03-16 20:32:00,
2013-03-16 15:42:00,30.0,26.0,30.11,NNW,346,7.0,12.0,84,0.00,,,0.00,,2013-03-16 20:42:00,
2013-03-16 15:52:00,30.0,25.0,30.11,North,11,5.0,7.0,82,0.00,,,0.00,,2013-03-16 20:52:00,
2013-03-16 16:02:00,30.0,26.0,30.11,NNW,342,5.0,9.0,84,0.00,,,0.00,,2013-03-16 21:02:00,
2013-03-16 16:12:00,30.0,26.0,30.11,NNW,342,5.0,9.0,84,0.00,,,0.00,,2013-03-16 21:12:00,
2013-03-16 16:22:00,30.0,26.0,30.11,North,352,5.0,10.0,84,0.00,,,0.00,,2013-03-16 21:22:00,
2013-03-16 16:32:00,30.0,25.0,30.11,North,358,5.0,7.0,83,0.00,,,0.00,,2013-03-16 21:32:00,
2013-03-16 16:43:00,30.0,25.0,30.11,North,358,5.0,7.0,83,0.00,,,0.00,,2013-03-16 21:43:00,
2013-03-16 16:53:00,31.0,26.0,30.11,NW,324,5.0,12.0,82,0.00,,,0.00,,2013-03-16 21:53:00,
2013-03-16 17:03:00,30.0,25.0,30.11,North,355,7.0,9.0,82,0.00,,,0.00,,2013-03-16 22:03:00,
2013-03-16 17:12:00,30.0,25.0,30.11,North,355,7.0,9.0,82,0.00,,,0.00,,2013-03-16 22:12:00,
2013-03-16 17:22:00,31.0,27.0,30.11,NNW,346,7.0,8.0,85,0.00,,,0.00,,2013-03-16 22:22:00,
2013-03-16 17:33:00,30.0,26.0,30.11,North,8,7.0,9.0,84,0.00,,,0.00,,2013-03-16 22:33:00,
2013-03-16 17:42:00,30.0,26.0,30.11,North,8,7.0,9.0,84,0.00,,,0.00,,2013-03-16 22:42:00,
2013-03-16 17:52:00,30.0,25.0,30.11,North,358,8.0,12.0,83,0.00,,,0.00,,2013-03-16 22:52:00,
2013-03-16 18:02:00,30.0,25.0,30.11,North,351,7.0,8.0,83,0.00,,,0.00,,2013-03-16 23:02:00,
2013-03-16 18:12:00,30.0,25.0,30.11,North,351,7.0,8.0,83,0.00,,,0.00,,2013-03-16 23:12:00,
2013-03-16 18:22:00,30.0,26.0,30.11,North,0,5.0,8.0,84,0.00,,,0.00,,2013-03-16 23:22:00,
2013-03-16 18:32:00,30.0,25.0,30.11,NNE,28,5.0,9.0,83,0.00,,,0.00,,2013-03-16 23:32:00,
2013-03-16 18:42:00,30.0,25.0,30.11,NNE,28,5.0,9.0,83,0.00,,,0.00,,2013-03-16 23:42:00,
2013-03-16 18:52:00,30.0,26.0,30.11,NNE,24,2.0,7.0,85,0.00,,,0.00,,2013-03-16 23:52:00,
2013-03-16 19:01:00,30.0,26.0,30.11,NNE,15,2.0,7.0,84,0.00,,,0.00,,2013-03-17 00:01:00,
2013-03-16 19:12:00,30.0,26.0,30.11,NNE,15,2.0,7.0,84,0.00,,,0.00,,2013-03-17 00:12:00,
2013-03-16 19:22:00,30.0,26.0,30.12,NNE,18,6.0,8.0,84,0.00,,,0.00,,2013-03-17 00:22:00,
2013-03-16 19:32:00,30.0,26.0,30.13,NNE,22,3.0,5.0,86,0.00,,,0.00,,2013-03-17 00:32:00,
2013-03-16 19:42:00,30.0,26.0,30.13,NNE,22,3.0,5.0,86,0.00,,,0.00,,2013-03-17 00:42:00,
2013-03-16 19:52:00,29.0,26.0,30.15,North,11,1.0,3.0,87,0.00,,,0.00,,2013-03-17 00:52:00,
2013-03-16 20:02:00,29.0,26.0,30.16,NE,40,2.0,5.0,87,0.00,,,0.00,,2013-03-17 01:02:00,
2013-03-16 20:12:00,29.0,26.0,30.16,NE,40,2.0,5.0,87,0.00,,,0.00,,2013-03-17 01:12:00,
2013-03-16 20:22:00,28.0,25.0,30.16,North,9,2.0,3.0,87,0.00,,,0.00,,2013-03-17 01:22:00,
2013-03-16 20:32:00,28.0,25.0,30.17,North,3,5.0,8.0,88,0.00,,,0.00,,2013-03-17 01:32:00,
2013-03-16 20:42:00,28.0,25.0,30.17,North,3,5.0,8.0,88,0.00,,,0.00,,2013-03-17 01:42:00,
2013-03-16 20:53:00,28.0,25.0,30.17,North,3,3.0,6.0,88,0.00,,,0.00,,2013-03-17 01:53:00,
2013-03-16 21:02:00,28.0,25.0,30.18,NNE,17,3.0,5.0,88,0.00,,,0.00,,2013-03-17 02:02:00,
2013-03-16 21:12:00,28.0,25.0,30.18,NNE,17,3.0,5.0,88,0.00,,,0.00,,2013-03-17 02:12:00,
2013-03-16 21:22:00,28.0,25.0,30.19,North,9,3.0,6.0,89,0.00,,,0.00,,2013-03-17 02:22:00,
2013-03-16 21:33:00,28.0,25.0,30.18,North,4,1.0,3.0,89,0.00,,,0.00,,2013-03-17 02:33:00,
2013-03-16 21:42:00,28.0,25.0,30.18,North,4,1.0,3.0,89,0.00,,,0.00,,2013-03-17 02:42:00,
2013-03-16 21:52:00,27.0,24.0,30.19,North,1,6.0,8.0,89,0.00,,,0.00,,2013-03-17 02:52:00,
2013-03-16 22:02:00,27.0,24.0,30.19,North,10,3.0,7.0,88,0.00,,,0.00,,2013-03-17 03:02:00,
2013-03-16 22:12:00,27.0,24.0,30.19,North,10,3.0,7.0,88,0.00,,,0.00,,2013-03-17 03:12:00,
2013-03-16 22:22:00,27.0,24.0,30.19,North,6,0.0,0.0,89,0.00,,,0.00,,2013-03-17 03:22:00,
2013-03-16 22:33:00,27.0,24.0,30.19,NNE,21,3.0,3.0,90,0.00,,,0.00,,2013-03-17 03:33:00,
2013-03-16 22:43:00,27.0,24.0,30.19,NNE,21,3.0,3.0,90,0.00,,,0.00,,2013-03-17 03:43:00,
2013-03-16 22:53:00,27.0,25.0,30.20,NNE,12,5.0,7.0,91,0.00,,,0.00,,2013-03-17 03:53:00,
2013-03-16 23:03:00,26.0,23.0,30.20,NE,39,2.0,3.0,90,0.00,,,0.00,,2013-03-17 04:03:00,
2013-03-16 23:12:00,26.0,23.0,30.20,NE,39,2.0,3.0,90,0.00,,,0.00,,2013-03-17 04:12:00,
2013-03-16 23:23:00,26.0,23.0,30.20,NNE,32,2.0,7.0,89,0.00,,,0.00,,2013-03-17 04:23:00,
2013-03-16 23:32:00,26.0,23.0,30.20,NNE,33,1.0,5.0,90,0.00,,,0.00,,2013-03-17 04:32:00,
2013-03-16 23:42:00,26.0,23.0,30.20,NNE,33,1.0,5.0,90,0.00,,,0.00,,2013-03-17 04:42:00,
2013-03-16 23:53:00,26.0,23.0,30.19,North,0,0.0,0.0,90,0.00,,,0.00,,2013-03-17 04:53:00,